»·PEaware :: N149CD KEMT-KVNY

N149CD :: KEMT-KVNY

FLIGHT INFORMATION

Flight Status: Arrived
Operator: Privately registered:
United States
More flights under this callsign
Pilot: Nathan E. (30132)
Aircraft: CESSNA 172 SKYHAWK
(C172)
More flights by this aircraft type
Origin: KEMT El Monte
United States
Destination: KVNY Van Nuys
United States
More flights between these airports :: More routes between these airports
Route: +PDZ V186 VNY
File this flight plan on PilotEdge
Remarks: TEC route ONTP1
Altitude:
(Current/Filed)
6,000ft
Speed:
(Current/Filed)
110kts
Departed: 06-Oct-20 02:40 PM
Arrived: 06-Oct-20 03:19 PM
Distance/Time
Traveled:
24nm/0:39
Distance/Time
To Go:
Arrived

Flight Plot

Page will automatically refresh every two minutes.


Map Options




Map Legend


Flown Route
Filed Route
Departure Airport
Arrival Airport
Navaid (VOR, NDB)
Fix

Horizontal Profiles

Position Reports

Time Latitude Longitude Heading Altitude Ground
Speed
06-Oct-20 14:21 34.082664 -118.034578 21 288ft 0kts
06-Oct-20 14:22 34.082664 -118.034578 21 288ft 0kts
06-Oct-20 14:23 34.082664 -118.034577 21 288ft 0kts
06-Oct-20 14:24 34.082664 -118.034577 21 288ft 0kts
06-Oct-20 14:25 34.082664 -118.034577 21 288ft 0kts
06-Oct-20 14:26 34.082664 -118.034577 21 288ft 0kts
06-Oct-20 14:26 34.082664 -118.034577 21 288ft 0kts
06-Oct-20 14:28 34.082664 -118.034577 21 288ft 0kts
06-Oct-20 14:29 34.082664 -118.034577 21 288ft 0kts
06-Oct-20 14:29 34.082664 -118.034577 21 288ft 0kts
06-Oct-20 14:31 34.082664 -118.034577 21 288ft 0kts
06-Oct-20 14:31 34.082664 -118.034577 21 288ft 0kts
06-Oct-20 14:32 34.082664 -118.034577 21 288ft 0kts
06-Oct-20 14:33 34.082664 -118.034577 21 288ft 0kts
06-Oct-20 14:34 34.082752 -118.034622 316 288ft 5kts
06-Oct-20 14:35 34.085613 -118.034434 24 287ft 18kts
06-Oct-20 14:36 34.090487 -118.031427 27 297ft 10kts
06-Oct-20 14:37 34.090612 -118.031374 307 297ft 0kts
06-Oct-20 14:38 34.090783 -118.031727 297 296ft 7kts
06-Oct-20 14:39 34.080549 -118.038116 202 621ft 64kts
06-Oct-20 14:40 34.062641 -118.047035 202 1417ft 71kts
06-Oct-20 14:41 34.052491 -118.034647 80 2200ft 83kts
06-Oct-20 14:42 34.059035 -118.007797 76 2952ft 84kts
06-Oct-20 14:43 34.067442 -117.981098 72 3667ft 86kts
06-Oct-20 14:44 34.071927 -117.954629 120 4345ft 79kts
06-Oct-20 14:45 34.062871 -117.930575 120 4992ft 79kts
06-Oct-20 14:46 34.053859 -117.906176 120 5610ft 79kts
06-Oct-20 14:47 34.044666 -117.881042 118 6052ft 96kts
06-Oct-20 14:48 34.032236 -117.846949 117 6044ft 112kts
06-Oct-20 14:49 34.019889 -117.812130 117 6042ft 114kts
06-Oct-20 14:50 34.007692 -117.776851 116 6038ft 114kts
06-Oct-20 14:51 33.995699 -117.741245 116 6034ft 114kts
06-Oct-20 14:52 33.984239 -117.706308 115 6032ft 115kts
06-Oct-20 14:53 33.964285 -117.703181 260 6026ft 115kts
06-Oct-20 14:54 33.967523 -117.742590 271 6027ft 119kts
06-Oct-20 14:55 33.971277 -117.782316 271 6026ft 119kts
06-Oct-20 14:56 33.974964 -117.822431 271 6027ft 120kts
06-Oct-20 14:57 33.985034 -117.860520 301 6028ft 125kts
06-Oct-20 14:58 34.005049 -117.894903 301 6032ft 125kts
06-Oct-20 14:59 34.025044 -117.929133 301 6034ft 125kts
06-Oct-20 15:00 34.045184 -117.963535 301 6036ft 125kts
06-Oct-20 15:01 34.065284 -117.997886 301 6036ft 125kts
06-Oct-20 15:02 34.083310 -118.033635 289 6034ft 124kts
06-Oct-20 15:03 34.095747 -118.072383 286 6032ft 123kts
06-Oct-20 15:04 34.107716 -118.111392 287 6036ft 124kts
06-Oct-20 15:05 34.119748 -118.150697 287 6038ft 125kts
06-Oct-20 15:06 34.131793 -118.190104 287 6040ft 125kts
06-Oct-20 15:07 34.143816 -118.229508 288 6041ft 125kts
06-Oct-20 15:08 34.155903 -118.269172 288 6043ft 125kts
06-Oct-20 15:09 34.167964 -118.308782 289 6045ft 125kts
06-Oct-20 15:10 34.180031 -118.348460 289 6045ft 126kts
06-Oct-20 15:11 34.191446 -118.388363 272 5978ft 129kts
06-Oct-20 15:12 34.187969 -118.430456 262 5480ft 125kts
06-Oct-20 15:13 34.183901 -118.471414 262 4993ft 125kts
06-Oct-20 15:14 34.180871 -118.514013 298 4419ft 127kts
06-Oct-20 15:15 34.211682 -118.520030 5 2890ft 116kts
06-Oct-20 15:16 34.229094 -118.499186 91 1445ft 99kts
06-Oct-20 15:17 34.212005 -118.490574 175 806ft 44kts
06-Oct-20 15:18 34.209023 -118.491466 175 806ft 17kts
06-Oct-20 15:19 34.206319 -118.492540 179 806ft 0kts

Navigation Log

Ident Type
Flight plan parsing failed, navigation log unavailable